RJOA

Hiroshima Airport

Airport
ICAO code
RJOA
IATA Code
HIJ
Summary
ICAO Region
APAC
ICAO Territory
Location

Mihara, Hiroshima, Chūgoku

Serving
Hiroshima
Elevation
1086 ft
Coordinates
34° 26' 23" N , 132° 55' 9" E
KCC
Metar
Observation
RJOA 271000Z VRB01KT 6000 BCFG FEW000 SCT010 BKN060 20/19 Q1013
Station
Hiroshima Airport
Date/Time
2022-09-27 10:00:00
Wind speed
01 kts
Lowest cloud amount
few clouds
Temperature
20°C
Dew point
19°C
Humidity
93%
QNH
1013 hPa
Weather condition
n/a

Airport in the city of Mihara, Hiroshima Prefecture, Japan. Located 50 km east of Hiroshima, it is the largest airport in the Chūgoku region.

Climatology

Humid Sub-tropical climate (Köppen climate classification Cfa)

Runways

Designator Length Width Surface Rops
10/28 3000 61 ASP Yes/Yes

Airport map

Aerial View

Airport accidents

SKYbrary Partners:

Safety knowledge contributed by: